Hue, Vietnam

10:08 AM ICT on September 03, 2014 (GMT +0700)
Danang International | Change Station
CLOSE
Current Station
Airport
Location: Da Nang,
Elevation: 23 ft
Nearby Weather Stations

Elev 23 ft 16.04 °N, 108.20 °E | Updated 8 minutes ago

Scattered Clouds
Scattered Clouds
88 °F
Feels Like 98 °F
N
4
Wind Variable Wind from SE

Today
High -- | Low -- °F
--% Chance of Precip.
Yesterday
High -- | Low -- °F
Precip. -- in
5:36 AM 6:01 PM
First Quarter, 57% visible
Pressure 29.86 in
Visibility 6.2 miles
Clouds Few 1500 ft
Scattered Clouds 30000 ft
Heat Index 98 °F
Dew Point 75 °F
Humidity 66%
Rainfall 0.00 in
Snow Depth Not available.
UV 8 out of 12
Pollen Not available.
Air Quality Not available.
Flu Activity Not available.
METAR VVDN 030300Z 13003KT 030V170 9999 FEW015 SCT300 31/24 Q1011 NOSIG

More Conditions Fewer Conditions

Pressure 29.86 in
Visibility 6.2 miles
Clouds Few 1500 ft
Scattered Clouds 30000 ft
Heat Index 98 °F
Dew Point 75 °F
Humidity 66%
Rainfall 0.00 in
Snow Depth Not available.
UV 8 out of 12
Pollen Not available.
Air Quality Not available.
Flu Activity Not available.
METAR VVDN 030300Z 13003KT 030V170 9999 FEW015 SCT300 31/24 Q1011 NOSIG

More Conditions Fewer Conditions

10-Day Weather Forecast

Almanac

Astronomy

Sep. 03, 2014 Rise Set
Actual Time 5:36 AM ICT 6:01 PM ICT
Civil Twilight 5:14 AM ICT 6:23 PM ICT
Nautical Twilight 4:49 AM ICT 6:48 PM ICT
Astronomical Twilight 4:23 AM ICT 7:14 PM ICT
Moon 12:44 PM ICT No Moon Set
Length of Visible Light 13h 08m
Length of Day
12h 24m
Tomorrow will be 0m 53s shorter.
First Quarter, 57% of the Moon is Illuminated
Sep 2
First Quarter
Sep 8
Full
Sep 15
Last Quarter
Sep 24
New
Oct 1
First Quarter

Yesterday's Extremes

Country Highs Country Lows

Community

WunderPhotos

Upload Photos

1,749,860 photos uploaded!

Nearby

Snow Depth

Not available.

Earthquake Activity

City Distance Mag. Time & Date
No recent earthquake activity has been reported nearby.
Minimum magnitude displayed is 2.5.

Coastal Water Temperatures

Place Temperature
No Stations Reporting

Nearby Weather Stations